TRA88G EHRD-GMTT
Flight info
| Callsign | TRA88G |
|---|---|
| Flight time | 2h 46m |
| Altitude | 35000 |
| Route | WOODY N872 MEDIL DCT KOVIN DCT DUCRA UM728 RESMI UN857 DISAK DCT ARKIP DCT ARNAV DCT LMG DCT UVELI DCT OSMOB DCT ARVID DCT PPN DCT NOLSA DCT ALEPO DCT VASUM DCT BANEV DCT BAN DCT GOTOR DCT KAMPO DCT MONTO DCT MOLIN DCT VJF N10 LINTO DCT NOLRO |
| Aircraft | B738/M-SDE2E3FGHIRWXY/LB1 |
Departure
| Time | 2026-04-16 13:54 |
|---|---|
| Airport | Rotterdam The Hague Airport (EHRD) |
Arrival
| Time | 2026-04-16 16:40 |
|---|---|
| Airport | Tangier Ibn Battuta Airport (GMTT) |
| Time | Latitude | Longitude | Altitude | Speed | Heading |
|---|---|---|---|---|---|
| 2026-04-16 13:23 | 51.94941 | 4.43585 | 0 ft | 0 kts | 326° |
| 2026-04-16 13:46 | 51.94945 | 4.43583 | 0 ft | 1 kts | 337° |
| 2026-04-16 13:46 | 51.94958 | 4.43583 | 0 ft | 3 kts | 359° |
| 2026-04-16 13:46 | 51.94988 | 4.43591 | 0 ft | 5 kts | 32° |
| 2026-04-16 13:47 | 51.95014 | 4.43650 | 0 ft | 8 kts | 57° |
| 2026-04-16 13:47 | 51.95061 | 4.43698 | 0 ft | 10 kts | 343° |
| 2026-04-16 13:47 | 51.95124 | 4.43637 | 0 ft | 11 kts | 327° |
| 2026-04-16 13:47 | 51.95195 | 4.43562 | 0 ft | 13 kts | 327° |
| 2026-04-16 13:48 | 51.95274 | 4.43500 | 0 ft | 13 kts | 12° |
| 2026-04-16 13:48 | 51.95328 | 4.43610 | 0 ft | 12 kts | 56° |
| 2026-04-16 13:48 | 51.95374 | 4.43727 | 0 ft | 12 kts | 58° |
| 2026-04-16 13:48 | 51.95418 | 4.43839 | 0 ft | 12 kts | 58° |
| 2026-04-16 13:49 | 51.95464 | 4.43955 | 0 ft | 13 kts | 57° |
| 2026-04-16 13:49 | 51.95514 | 4.44083 | 0 ft | 14 kts | 56° |
| 2026-04-16 13:49 | 51.95572 | 4.44221 | 0 ft | 15 kts | 56° |
| 2026-04-16 13:49 | 51.95632 | 4.44371 | 0 ft | 16 kts | 57° |
| 2026-04-16 13:50 | 51.95695 | 4.44530 | 0 ft | 17 kts | 58° |
| 2026-04-16 13:50 | 51.95760 | 4.44694 | 0 ft | 17 kts | 56° |
| 2026-04-16 13:50 | 51.95825 | 4.44858 | 0 ft | 17 kts | 57° |
| 2026-04-16 13:50 | 51.95890 | 4.45025 | 0 ft | 18 kts | 57° |
| 2026-04-16 13:51 | 51.95958 | 4.45190 | 0 ft | 18 kts | 57° |
| 2026-04-16 13:51 | 51.96024 | 4.45359 | 1 ft | 18 kts | 56° |
| 2026-04-16 13:51 | 51.96092 | 4.45525 | 0 ft | 17 kts | 57° |
| 2026-04-16 13:51 | 51.96153 | 4.45638 | 0 ft | 11 kts | 22° |
| 2026-04-16 13:52 | 51.96219 | 4.45604 | 0 ft | 11 kts | 304° |
| 2026-04-16 13:52 | 51.96262 | 4.45514 | -1 ft | 6 kts | 317° |
| 2026-04-16 13:52 | 51.96261 | 4.45457 | -1 ft | 0 kts | 237° |
| 2026-04-16 13:53 | 51.96192 | 4.45283 | 1 ft | 51 kts | 237° |
| 2026-04-16 13:53 | 51.95870 | 4.44476 | -3 ft | 118 kts | 237° |
| 2026-04-16 13:53 | 51.95338 | 4.43130 | 166 ft | 155 kts | 238° |
| 2026-04-16 13:54 | 51.94738 | 4.41610 | 813 ft | 164 kts | 245° |
| 2026-04-16 13:54 | 51.94597 | 4.39812 | 1631 ft | 166 kts | 283° |
| 2026-04-16 13:54 | 51.95054 | 4.37986 | 2221 ft | 185 kts | 290° |
| 2026-04-16 13:54 | 51.95543 | 4.35950 | 2630 ft | 203 kts | 287° |
| 2026-04-16 13:55 | 51.96008 | 4.33712 | 3060 ft | 214 kts | 280° |
| 2026-04-16 13:55 | 51.96042 | 4.31229 | 3338 ft | 236 kts | 259° |
| 2026-04-16 13:55 | 51.95724 | 4.28533 | 3880 ft | 248 kts | 256° |
| 2026-04-16 13:55 | 51.95385 | 4.25776 | 4757 ft | 249 kts | 258° |
| 2026-04-16 13:56 | 51.95116 | 4.22995 | 5588 ft | 253 kts | 259° |
| 2026-04-16 13:56 | 51.94633 | 4.20239 | 6271 ft | 257 kts | 238° |
| 2026-04-16 13:56 | 51.93384 | 4.18222 | 7047 ft | 259 kts | 208° |
| 2026-04-16 13:56 | 51.91624 | 4.17521 | 7756 ft | 267 kts | 181° |
| 2026-04-16 13:57 | 51.89788 | 4.18158 | 8478 ft | 277 kts | 160° |
| 2026-04-16 13:57 | 51.88048 | 4.19612 | 9139 ft | 285 kts | 154° |
| 2026-04-16 13:57 | 51.86290 | 4.21155 | 9856 ft | 289 kts | 156° |
| 2026-04-16 13:58 | 51.82579 | 4.24205 | 10684 ft | 318 kts | 157° |
| 2026-04-16 13:58 | 51.80530 | 4.25858 | 10857 ft | 340 kts | 157° |
| 2026-04-16 13:58 | 51.78373 | 4.27603 | 11281 ft | 352 kts | 156° |
| 2026-04-16 13:58 | 51.76170 | 4.29392 | 11898 ft | 357 kts | 156° |
| 2026-04-16 13:59 | 51.73941 | 4.31205 | 12579 ft | 360 kts | 156° |
| 2026-04-16 13:59 | 51.71690 | 4.33034 | 13223 ft | 365 kts | 156° |
| 2026-04-16 13:59 | 51.69411 | 4.34884 | 13890 ft | 369 kts | 157° |
| 2026-04-16 13:59 | 51.67103 | 4.36753 | 14466 ft | 373 kts | 157° |
| 2026-04-16 14:00 | 51.64769 | 4.38640 | 15036 ft | 377 kts | 157° |
| 2026-04-16 14:00 | 51.62361 | 4.40305 | 15586 ft | 376 kts | 170° |
| 2026-04-16 14:00 | 51.59783 | 4.40620 | 16167 ft | 370 kts | 189° |
| 2026-04-16 14:00 | 51.57223 | 4.40137 | 16771 ft | 371 kts | 192° |
| 2026-04-16 14:01 | 51.54650 | 4.39554 | 17312 ft | 376 kts | 192° |
| 2026-04-16 14:01 | 51.52044 | 4.38963 | 17864 ft | 380 kts | 192° |
| 2026-04-16 14:01 | 51.49410 | 4.38391 | 18438 ft | 384 kts | 192° |
| 2026-04-16 14:01 | 51.46746 | 4.37838 | 18911 ft | 387 kts | 192° |
| 2026-04-16 14:02 | 51.44062 | 4.37296 | 19413 ft | 390 kts | 192° |
| 2026-04-16 14:02 | 51.41364 | 4.36741 | 19936 ft | 391 kts | 194° |
| 2026-04-16 14:02 | 51.38795 | 4.35477 | 20400 ft | 385 kts | 210° |
| 2026-04-16 14:02 | 51.36405 | 4.33552 | 20931 ft | 385 kts | 211° |
| 2026-04-16 14:03 | 51.33987 | 4.31666 | 21419 ft | 389 kts | 210° |
| 2026-04-16 14:03 | 51.31530 | 4.29812 | 21890 ft | 392 kts | 210° |
| 2026-04-16 14:03 | 51.29057 | 4.27949 | 22355 ft | 394 kts | 210° |
| 2026-04-16 14:03 | 51.26573 | 4.26061 | 22825 ft | 397 kts | 210° |
| 2026-04-16 14:04 | 51.24078 | 4.24160 | 23279 ft | 399 kts | 210° |
| 2026-04-16 14:04 | 51.21571 | 4.22250 | 23743 ft | 401 kts | 210° |
| 2026-04-16 14:04 | 51.19042 | 4.20330 | 24114 ft | 403 kts | 210° |
| 2026-04-16 14:04 | 51.16501 | 4.18418 | 24478 ft | 406 kts | 208° |
| 2026-04-16 14:05 | 51.13848 | 4.16762 | 24828 ft | 412 kts | 204° |
| 2026-04-16 14:05 | 51.11128 | 4.15288 | 25179 ft | 415 kts | 203° |
| 2026-04-16 14:05 | 51.08376 | 4.13848 | 25520 ft | 417 kts | 203° |
| 2026-04-16 14:05 | 51.05615 | 4.12398 | 25857 ft | 420 kts | 204° |
| 2026-04-16 14:06 | 51.02839 | 4.10918 | 26191 ft | 422 kts | 204° |
| 2026-04-16 14:06 | 51.00052 | 4.09412 | 26513 ft | 424 kts | 204° |
| 2026-04-16 14:06 | 50.97258 | 4.07893 | 26840 ft | 426 kts | 205° |
| 2026-04-16 14:06 | 50.94446 | 4.06360 | 27159 ft | 428 kts | 205° |
| 2026-04-16 14:07 | 50.91622 | 4.04822 | 27458 ft | 431 kts | 205° |
| 2026-04-16 14:07 | 50.88781 | 4.03281 | 27753 ft | 433 kts | 205° |
| 2026-04-16 14:07 | 50.85946 | 4.01655 | 28050 ft | 433 kts | 207° |
| 2026-04-16 14:07 | 50.83147 | 3.99885 | 28338 ft | 434 kts | 208° |
| 2026-04-16 14:08 | 50.80382 | 3.98075 | 28601 ft | 436 kts | 208° |
| 2026-04-16 14:08 | 50.77574 | 3.96227 | 28843 ft | 439 kts | 208° |
| 2026-04-16 14:08 | 50.74701 | 3.94353 | 29103 ft | 442 kts | 208° |
| 2026-04-16 14:08 | 50.71848 | 3.92512 | 29389 ft | 444 kts | 208° |
| 2026-04-16 14:09 | 50.68978 | 3.90673 | 29662 ft | 446 kts | 208° |
| 2026-04-16 14:09 | 50.66138 | 3.88862 | 29974 ft | 446 kts | 208° |
| 2026-04-16 14:09 | 50.63262 | 3.87032 | 30349 ft | 445 kts | 208° |
| 2026-04-16 14:09 | 50.60396 | 3.85210 | 30705 ft | 444 kts | 209° |
| 2026-04-16 14:10 | 50.57539 | 3.83397 | 30990 ft | 443 kts | 209° |
| 2026-04-16 14:10 | 50.54694 | 3.81527 | 31232 ft | 443 kts | 210° |
| 2026-04-16 14:10 | 50.51871 | 3.79597 | 31503 ft | 442 kts | 211° |
| 2026-04-16 14:10 | 50.49063 | 3.77655 | 31842 ft | 440 kts | 211° |
| 2026-04-16 14:11 | 50.46263 | 3.75724 | 32184 ft | 438 kts | 211° |
| 2026-04-16 14:11 | 50.43470 | 3.73809 | 32478 ft | 438 kts | 211° |
| 2026-04-16 14:11 | 50.40678 | 3.71903 | 32741 ft | 438 kts | 211° |
| 2026-04-16 14:11 | 50.37885 | 3.70004 | 33026 ft | 437 kts | 211° |
| 2026-04-16 14:12 | 50.35097 | 3.68114 | 33340 ft | 435 kts | 211° |
| 2026-04-16 14:12 | 50.32333 | 3.66247 | 33765 ft | 431 kts | 211° |
| 2026-04-16 14:12 | 50.29585 | 3.64394 | 34083 ft | 429 kts | 211° |
| 2026-04-16 14:12 | 50.26842 | 3.62544 | 34295 ft | 430 kts | 211° |
| 2026-04-16 14:13 | 50.24094 | 3.60690 | 34465 ft | 430 kts | 211° |
| 2026-04-16 14:13 | 50.21347 | 3.58838 | 34683 ft | 430 kts | 211° |
| 2026-04-16 14:13 | 50.18604 | 3.56991 | 34904 ft | 429 kts | 211° |
| 2026-04-16 14:13 | 50.15863 | 3.55148 | 35091 ft | 429 kts | 211° |
| 2026-04-16 14:14 | 50.13121 | 3.53305 | 35201 ft | 430 kts | 211° |
| 2026-04-16 14:14 | 50.10366 | 3.51455 | 35229 ft | 432 kts | 211° |
| 2026-04-16 14:14 | 50.04849 | 3.47761 | 35237 ft | 430 kts | 211° |
| 2026-04-16 14:15 | 49.99360 | 3.44098 | 35239 ft | 428 kts | 211° |
| 2026-04-16 14:15 | 49.93898 | 3.40459 | 35246 ft | 426 kts | 211° |
| 2026-04-16 14:16 | 49.88458 | 3.36842 | 35237 ft | 425 kts | 210° |
| 2026-04-16 14:16 | 49.83023 | 3.33237 | 35245 ft | 425 kts | 210° |
| 2026-04-16 14:17 | 49.77582 | 3.29637 | 35245 ft | 426 kts | 210° |
| 2026-04-16 14:17 | 49.72130 | 3.26038 | 35249 ft | 427 kts | 210° |
| 2026-04-16 14:18 | 49.66656 | 3.22433 | 35236 ft | 428 kts | 210° |
| 2026-04-16 14:18 | 49.61199 | 3.18849 | 35243 ft | 430 kts | 210° |
| 2026-04-16 14:19 | 49.55687 | 3.15235 | 35250 ft | 431 kts | 210° |
| 2026-04-16 14:19 | 49.50150 | 3.11617 | 35259 ft | 433 kts | 210° |
| 2026-04-16 14:20 | 49.44983 | 3.07142 | 35257 ft | 423 kts | 220° |
| 2026-04-16 14:20 | 49.40103 | 3.02080 | 35252 ft | 423 kts | 220° |
| 2026-04-16 14:21 | 49.35213 | 2.97050 | 35249 ft | 423 kts | 220° |
| 2026-04-16 14:21 | 49.30302 | 2.92064 | 35251 ft | 423 kts | 219° |
| 2026-04-16 14:22 | 49.25388 | 2.87109 | 35236 ft | 422 kts | 219° |
| 2026-04-16 14:22 | 49.20483 | 2.82176 | 35245 ft | 422 kts | 219° |
| 2026-04-16 14:23 | 49.15580 | 2.77255 | 35246 ft | 421 kts | 219° |
| 2026-04-16 14:23 | 49.10680 | 2.72348 | 35239 ft | 421 kts | 219° |
| 2026-04-16 14:24 | 49.05784 | 2.67455 | 35238 ft | 421 kts | 219° |
| 2026-04-16 14:24 | 49.00889 | 2.62572 | 35232 ft | 420 kts | 219° |
| 2026-04-16 14:25 | 48.96789 | 2.58496 | 35245 ft | 420 kts | 219° |
| 2026-04-16 14:25 | 48.91891 | 2.53639 | 35245 ft | 420 kts | 219° |
| 2026-04-16 14:26 | 48.87026 | 2.48822 | 35231 ft | 420 kts | 219° |
| 2026-04-16 14:26 | 48.82124 | 2.43976 | 35247 ft | 420 kts | 218° |
| 2026-04-16 14:27 | 48.77221 | 2.39139 | 35242 ft | 420 kts | 218° |
| 2026-04-16 14:27 | 48.72315 | 2.34310 | 35246 ft | 420 kts | 218° |
| 2026-04-16 14:28 | 48.67412 | 2.29493 | 35237 ft | 420 kts | 218° |
| 2026-04-16 14:28 | 48.62510 | 2.24687 | 35234 ft | 420 kts | 218° |
| 2026-04-16 14:29 | 48.57515 | 2.20080 | 35238 ft | 425 kts | 210° |
| 2026-04-16 14:29 | 48.51802 | 2.17395 | 35256 ft | 436 kts | 198° |
| 2026-04-16 14:30 | 48.45851 | 2.15592 | 35251 ft | 436 kts | 197° |
| 2026-04-16 14:30 | 48.39908 | 2.13733 | 35235 ft | 436 kts | 198° |
| 2026-04-16 14:31 | 48.33986 | 2.11829 | 35255 ft | 435 kts | 198° |
| 2026-04-16 14:31 | 48.27985 | 2.10341 | 35250 ft | 443 kts | 187° |
| 2026-04-16 14:32 | 48.21779 | 2.11283 | 35264 ft | 452 kts | 176° |
| 2026-04-16 14:32 | 48.15567 | 2.12734 | 35254 ft | 451 kts | 178° |
| 2026-04-16 14:33 | 48.09415 | 2.12628 | 35270 ft | 438 kts | 193° |
| 2026-04-16 14:33 | 48.03380 | 2.11367 | 35261 ft | 438 kts | 193° |
| 2026-04-16 14:34 | 47.97334 | 2.10135 | 35264 ft | 439 kts | 193° |
| 2026-04-16 14:34 | 47.91275 | 2.08955 | 35266 ft | 439 kts | 193° |
| 2026-04-16 14:35 | 47.85213 | 2.07792 | 35265 ft | 439 kts | 193° |
| 2026-04-16 14:35 | 47.79149 | 2.06632 | 35254 ft | 439 kts | 193° |
| 2026-04-16 14:36 | 47.73085 | 2.05471 | 35243 ft | 439 kts | 192° |
| 2026-04-16 14:36 | 47.67017 | 2.04312 | 35250 ft | 439 kts | 192° |
| 2026-04-16 14:37 | 47.61087 | 2.02494 | 35246 ft | 430 kts | 206° |
| 2026-04-16 14:37 | 47.55544 | 1.99209 | 35243 ft | 429 kts | 207° |
| 2026-04-16 14:38 | 47.50006 | 1.95915 | 35251 ft | 429 kts | 206° |
| 2026-04-16 14:38 | 47.44442 | 1.92670 | 35249 ft | 430 kts | 206° |
| 2026-04-16 14:39 | 47.38908 | 1.89473 | 35251 ft | 430 kts | 206° |
| 2026-04-16 14:39 | 47.33326 | 1.86258 | 35234 ft | 431 kts | 206° |
| 2026-04-16 14:40 | 47.27743 | 1.83047 | 35244 ft | 431 kts | 206° |
| 2026-04-16 14:40 | 47.22155 | 1.79839 | 35239 ft | 431 kts | 206° |
| 2026-04-16 14:41 | 47.16553 | 1.76656 | 35233 ft | 432 kts | 206° |
| 2026-04-16 14:41 | 47.10935 | 1.73505 | 35240 ft | 432 kts | 205° |
| 2026-04-16 14:42 | 47.05318 | 1.70360 | 35244 ft | 432 kts | 205° |
| 2026-04-16 14:42 | 46.99693 | 1.67211 | 35238 ft | 433 kts | 205° |
| 2026-04-16 14:43 | 46.94066 | 1.64064 | 35230 ft | 433 kts | 205° |
| 2026-04-16 14:43 | 46.88441 | 1.60926 | 35239 ft | 433 kts | 205° |
| 2026-04-16 14:44 | 46.82818 | 1.57795 | 35238 ft | 432 kts | 205° |
| 2026-04-16 14:44 | 46.77200 | 1.54675 | 35240 ft | 432 kts | 205° |
| 2026-04-16 14:45 | 46.71590 | 1.51566 | 35244 ft | 431 kts | 205° |
| 2026-04-16 14:45 | 46.65986 | 1.48467 | 35249 ft | 430 kts | 205° |
| 2026-04-16 14:46 | 46.60389 | 1.45379 | 35246 ft | 430 kts | 205° |
| 2026-04-16 14:46 | 46.54797 | 1.42300 | 35241 ft | 429 kts | 205° |
| 2026-04-16 14:47 | 46.49211 | 1.39232 | 35254 ft | 429 kts | 205° |
| 2026-04-16 14:47 | 46.43659 | 1.36188 | 35252 ft | 430 kts | 205° |
| 2026-04-16 14:48 | 46.38064 | 1.33127 | 35257 ft | 430 kts | 205° |
| 2026-04-16 14:48 | 46.32460 | 1.30068 | 35247 ft | 431 kts | 205° |
| 2026-04-16 14:49 | 46.26849 | 1.27013 | 35257 ft | 431 kts | 205° |
| 2026-04-16 14:49 | 46.21222 | 1.23955 | 35252 ft | 432 kts | 205° |
| 2026-04-16 14:50 | 46.15586 | 1.20899 | 35233 ft | 433 kts | 205° |
| 2026-04-16 14:50 | 46.09939 | 1.17844 | 35251 ft | 433 kts | 204° |
| 2026-04-16 14:51 | 46.04290 | 1.14794 | 35236 ft | 434 kts | 204° |
| 2026-04-16 14:51 | 45.98642 | 1.11751 | 35240 ft | 433 kts | 204° |
| 2026-04-16 14:53 | 45.79385 | 1.00117 | 35239 ft | 421 kts | 223° |
| 2026-04-16 14:53 | 45.77145 | 0.97428 | 35248 ft | 420 kts | 224° |
| 2026-04-16 14:54 | 45.72690 | 0.92010 | 35233 ft | 420 kts | 223° |
| 2026-04-16 14:54 | 45.68217 | 0.86616 | 35228 ft | 421 kts | 223° |
| 2026-04-16 14:55 | 45.63723 | 0.81244 | 35229 ft | 421 kts | 223° |
| 2026-04-16 14:55 | 45.59214 | 0.75878 | 35236 ft | 422 kts | 223° |
| 2026-04-16 14:56 | 45.54702 | 0.70521 | 35214 ft | 422 kts | 223° |
| 2026-04-16 14:56 | 45.50187 | 0.65173 | 35221 ft | 422 kts | 223° |
| 2026-04-16 14:57 | 45.45666 | 0.59829 | 35207 ft | 422 kts | 223° |
| 2026-04-16 14:57 | 45.41148 | 0.54499 | 35212 ft | 422 kts | 223° |
| 2026-04-16 14:58 | 45.34367 | 0.46521 | 35205 ft | 421 kts | 222° |
| 2026-04-16 14:59 | 45.29851 | 0.41222 | 35202 ft | 421 kts | 222° |
| 2026-04-16 14:59 | 45.25366 | 0.35969 | 35206 ft | 421 kts | 222° |
| 2026-04-16 15:00 | 45.20852 | 0.30694 | 35200 ft | 420 kts | 222° |
| 2026-04-16 15:00 | 45.16338 | 0.25429 | 35187 ft | 420 kts | 222° |
| 2026-04-16 15:01 | 45.11828 | 0.20179 | 35199 ft | 419 kts | 222° |
| 2026-04-16 15:01 | 45.07319 | 0.14939 | 35201 ft | 419 kts | 222° |
| 2026-04-16 15:02 | 45.02805 | 0.09709 | 35202 ft | 420 kts | 222° |
| 2026-04-16 15:02 | 44.98282 | 0.04487 | 35184 ft | 420 kts | 222° |
| 2026-04-16 15:03 | 44.93758 | -0.00729 | 35210 ft | 420 kts | 221° |
| 2026-04-16 15:03 | 44.89227 | -0.05947 | 35207 ft | 421 kts | 221° |
| 2026-04-16 15:04 | 44.84691 | -0.11162 | 35203 ft | 421 kts | 221° |
| 2026-04-16 15:04 | 44.80149 | -0.16373 | 35201 ft | 421 kts | 221° |
| 2026-04-16 15:05 | 44.75605 | -0.21575 | 35202 ft | 421 kts | 221° |
| 2026-04-16 15:05 | 44.71068 | -0.26763 | 35200 ft | 420 kts | 221° |
| 2026-04-16 15:06 | 44.66527 | -0.31939 | 35202 ft | 420 kts | 221° |
| 2026-04-16 15:06 | 44.61595 | -0.36380 | 35205 ft | 424 kts | 210° |
| 2026-04-16 15:07 | 44.56353 | -0.40164 | 35198 ft | 424 kts | 210° |
| 2026-04-16 15:07 | 44.51113 | -0.43952 | 35200 ft | 423 kts | 210° |
| 2026-04-16 15:08 | 44.45889 | -0.47761 | 35194 ft | 423 kts | 211° |
| 2026-04-16 15:08 | 44.40666 | -0.51582 | 35174 ft | 424 kts | 211° |
| 2026-04-16 15:09 | 44.35478 | -0.55373 | 35193 ft | 424 kts | 210° |
| 2026-04-16 15:09 | 44.30250 | -0.59187 | 35191 ft | 424 kts | 210° |
| 2026-04-16 15:10 | 44.25007 | -0.63003 | 35190 ft | 425 kts | 210° |
| 2026-04-16 15:10 | 44.19717 | -0.66845 | 35177 ft | 426 kts | 210° |
| 2026-04-16 15:11 | 44.14487 | -0.70636 | 35188 ft | 427 kts | 210° |
| 2026-04-16 15:11 | 44.10066 | -0.73834 | 35178 ft | 428 kts | 210° |
| 2026-04-16 15:12 | 44.03924 | -0.78268 | 35194 ft | 428 kts | 210° |
| 2026-04-16 15:12 | 43.99494 | -0.81460 | 35169 ft | 428 kts | 210° |
| 2026-04-16 15:13 | 43.94208 | -0.85261 | 35168 ft | 427 kts | 210° |
| 2026-04-16 15:13 | 43.88932 | -0.89048 | 35182 ft | 427 kts | 210° |
| 2026-04-16 15:14 | 43.83662 | -0.92823 | 35172 ft | 426 kts | 210° |
| 2026-04-16 15:14 | 43.78399 | -0.96585 | 35157 ft | 425 kts | 210° |
| 2026-04-16 15:15 | 43.73148 | -1.00332 | 35158 ft | 425 kts | 210° |
| 2026-04-16 15:15 | 43.67894 | -1.04073 | 35160 ft | 425 kts | 210° |
| 2026-04-16 15:16 | 43.62673 | -1.07783 | 35163 ft | 425 kts | 210° |
| 2026-04-16 15:16 | 43.57410 | -1.11516 | 35158 ft | 425 kts | 210° |
| 2026-04-16 15:17 | 43.52143 | -1.15245 | 35156 ft | 426 kts | 210° |
| 2026-04-16 15:17 | 43.46868 | -1.18972 | 35159 ft | 426 kts | 210° |
| 2026-04-16 15:18 | 43.41582 | -1.22699 | 35148 ft | 427 kts | 210° |
| 2026-04-16 15:18 | 43.36291 | -1.26423 | 35159 ft | 427 kts | 210° |
| 2026-04-16 15:19 | 43.30994 | -1.30144 | 35156 ft | 428 kts | 210° |
| 2026-04-16 15:19 | 43.25686 | -1.33865 | 35156 ft | 429 kts | 210° |
| 2026-04-16 15:20 | 43.20366 | -1.37588 | 35143 ft | 429 kts | 210° |
| 2026-04-16 15:20 | 43.15044 | -1.41307 | 35155 ft | 431 kts | 210° |
| 2026-04-16 15:21 | 43.09701 | -1.45032 | 35142 ft | 431 kts | 210° |
| 2026-04-16 15:21 | 43.04358 | -1.48747 | 35146 ft | 430 kts | 210° |
| 2026-04-16 15:22 | 42.99024 | -1.52454 | 35142 ft | 430 kts | 210° |
| 2026-04-16 15:22 | 42.93693 | -1.56157 | 35145 ft | 429 kts | 210° |
| 2026-04-16 15:23 | 42.88365 | -1.59852 | 35162 ft | 430 kts | 210° |
| 2026-04-16 15:23 | 42.83062 | -1.63523 | 35158 ft | 431 kts | 210° |
| 2026-04-16 15:24 | 42.77713 | -1.67220 | 35159 ft | 431 kts | 210° |
| 2026-04-16 15:24 | 42.72361 | -1.70905 | 35158 ft | 432 kts | 210° |
| 2026-04-16 15:25 | 42.66972 | -1.74532 | 35159 ft | 432 kts | 209° |
| 2026-04-16 15:25 | 42.61572 | -1.78141 | 35149 ft | 433 kts | 209° |
| 2026-04-16 15:26 | 42.56173 | -1.81755 | 35130 ft | 433 kts | 209° |
| 2026-04-16 15:26 | 42.50770 | -1.85372 | 35133 ft | 433 kts | 209° |
| 2026-04-16 15:27 | 42.45364 | -1.88985 | 35134 ft | 433 kts | 209° |
| 2026-04-16 15:27 | 42.39953 | -1.92592 | 35117 ft | 434 kts | 210° |
| 2026-04-16 15:28 | 42.34530 | -1.96206 | 35121 ft | 435 kts | 210° |
| 2026-04-16 15:28 | 42.29093 | -1.99832 | 35138 ft | 436 kts | 210° |
| 2026-04-16 15:29 | 42.23634 | -2.03462 | 35138 ft | 438 kts | 210° |
| 2026-04-16 15:29 | 42.18145 | -2.07092 | 35133 ft | 440 kts | 210° |
| 2026-04-16 15:30 | 42.12632 | -2.10735 | 35136 ft | 442 kts | 210° |
| 2026-04-16 15:30 | 42.07138 | -2.14361 | 35142 ft | 443 kts | 210° |
| 2026-04-16 15:31 | 42.01595 | -2.18014 | 35134 ft | 444 kts | 210° |
| 2026-04-16 15:31 | 41.96050 | -2.21661 | 35127 ft | 444 kts | 210° |
| 2026-04-16 15:32 | 41.90505 | -2.25301 | 35141 ft | 443 kts | 210° |
| 2026-04-16 15:32 | 41.84963 | -2.28932 | 35138 ft | 443 kts | 210° |
| 2026-04-16 15:33 | 41.79415 | -2.32561 | 35137 ft | 444 kts | 210° |
| 2026-04-16 15:33 | 41.73862 | -2.36186 | 35126 ft | 444 kts | 210° |
| 2026-04-16 15:34 | 41.68301 | -2.39809 | 35134 ft | 445 kts | 210° |
| 2026-04-16 15:34 | 41.62733 | -2.43430 | 35134 ft | 445 kts | 210° |
| 2026-04-16 15:35 | 41.57163 | -2.47048 | 35136 ft | 445 kts | 210° |
| 2026-04-16 15:35 | 41.51580 | -2.50666 | 35125 ft | 446 kts | 210° |
| 2026-04-16 15:36 | 41.45988 | -2.54272 | 35135 ft | 447 kts | 209° |
| 2026-04-16 15:36 | 41.40387 | -2.57870 | 35138 ft | 447 kts | 209° |
| 2026-04-16 15:37 | 41.34776 | -2.61471 | 35137 ft | 448 kts | 209° |
| 2026-04-16 15:37 | 41.29389 | -2.65536 | 35148 ft | 443 kts | 218° |
| 2026-04-16 15:38 | 41.24345 | -2.70247 | 35136 ft | 443 kts | 219° |
| 2026-04-16 15:38 | 41.19312 | -2.74976 | 35137 ft | 444 kts | 219° |
| 2026-04-16 15:39 | 41.14245 | -2.79665 | 35144 ft | 444 kts | 218° |
| 2026-04-16 15:39 | 41.09161 | -2.84325 | 35132 ft | 444 kts | 218° |
| 2026-04-16 15:40 | 41.04103 | -2.88943 | 35153 ft | 444 kts | 218° |
| 2026-04-16 15:40 | 40.99011 | -2.93583 | 35140 ft | 444 kts | 218° |
| 2026-04-16 15:41 | 40.93921 | -2.98215 | 35148 ft | 444 kts | 218° |
| 2026-04-16 15:41 | 40.88831 | -3.02839 | 35150 ft | 444 kts | 218° |
| 2026-04-16 15:42 | 40.83738 | -3.07457 | 35142 ft | 444 kts | 218° |
| 2026-04-16 15:42 | 40.78645 | -3.12066 | 35143 ft | 444 kts | 218° |
| 2026-04-16 15:43 | 40.73555 | -3.16663 | 35139 ft | 443 kts | 218° |
| 2026-04-16 15:43 | 40.68469 | -3.21248 | 35146 ft | 443 kts | 218° |
| 2026-04-16 15:44 | 40.63389 | -3.25820 | 35148 ft | 442 kts | 218° |
| 2026-04-16 15:44 | 40.58312 | -3.30380 | 35153 ft | 442 kts | 218° |
| 2026-04-16 15:45 | 40.53234 | -3.34932 | 35160 ft | 441 kts | 218° |
| 2026-04-16 15:45 | 40.48160 | -3.39473 | 35158 ft | 441 kts | 218° |
| 2026-04-16 15:46 | 40.43088 | -3.44004 | 35155 ft | 441 kts | 218° |
| 2026-04-16 15:46 | 40.38012 | -3.48530 | 35149 ft | 441 kts | 217° |
| 2026-04-16 15:47 | 40.32941 | -3.53043 | 35155 ft | 440 kts | 217° |
| 2026-04-16 15:47 | 40.27872 | -3.57547 | 35154 ft | 440 kts | 217° |
| 2026-04-16 15:48 | 40.22802 | -3.62043 | 35158 ft | 440 kts | 217° |
| 2026-04-16 15:48 | 40.17771 | -3.66499 | 35145 ft | 440 kts | 217° |
| 2026-04-16 15:49 | 40.12707 | -3.70975 | 35150 ft | 439 kts | 217° |
| 2026-04-16 15:49 | 40.07641 | -3.75437 | 35129 ft | 439 kts | 217° |
| 2026-04-16 15:50 | 40.02573 | -3.79890 | 35138 ft | 439 kts | 217° |
| 2026-04-16 15:50 | 39.97503 | -3.84340 | 35134 ft | 439 kts | 217° |
| 2026-04-16 15:51 | 39.92435 | -3.88783 | 35126 ft | 439 kts | 217° |
| 2026-04-16 15:51 | 39.87368 | -3.93218 | 35132 ft | 439 kts | 217° |
| 2026-04-16 15:52 | 39.82300 | -3.97647 | 35134 ft | 439 kts | 217° |
| 2026-04-16 15:52 | 39.77227 | -4.02075 | 35130 ft | 439 kts | 217° |
| 2026-04-16 15:53 | 39.72153 | -4.06491 | 35134 ft | 439 kts | 217° |
| 2026-04-16 15:53 | 39.67078 | -4.10906 | 35127 ft | 439 kts | 217° |
| 2026-04-16 15:54 | 39.62006 | -4.15317 | 35131 ft | 439 kts | 217° |
| 2026-04-16 15:54 | 39.56935 | -4.19723 | 35139 ft | 439 kts | 217° |
| 2026-04-16 15:55 | 39.51863 | -4.24121 | 35130 ft | 439 kts | 217° |
| 2026-04-16 15:55 | 39.46792 | -4.28510 | 35137 ft | 438 kts | 217° |
| 2026-04-16 15:56 | 39.41726 | -4.32888 | 35146 ft | 438 kts | 216° |
| 2026-04-16 15:56 | 39.36659 | -4.37259 | 35144 ft | 438 kts | 216° |
| 2026-04-16 15:57 | 39.31593 | -4.41622 | 35145 ft | 437 kts | 216° |
| 2026-04-16 15:57 | 39.26533 | -4.45976 | 35132 ft | 437 kts | 216° |
| 2026-04-16 15:58 | 39.21472 | -4.50317 | 35136 ft | 437 kts | 216° |
| 2026-04-16 15:58 | 39.16401 | -4.54643 | 35132 ft | 437 kts | 216° |
| 2026-04-16 15:59 | 39.08785 | -4.61128 | 35121 ft | 437 kts | 216° |
| 2026-04-16 15:59 | 39.03708 | -4.65447 | 35131 ft | 437 kts | 216° |
| 2026-04-16 16:00 | 38.99421 | -4.68899 | 35119 ft | 439 kts | 208° |
| 2026-04-16 16:00 | 38.93725 | -4.71792 | 35126 ft | 441 kts | 202° |
| 2026-04-16 16:01 | 38.87959 | -4.74495 | 35119 ft | 441 kts | 202° |
| 2026-04-16 16:01 | 38.82205 | -4.77225 | 35122 ft | 441 kts | 203° |
| 2026-04-16 16:02 | 38.76467 | -4.79983 | 35122 ft | 440 kts | 203° |
| 2026-04-16 16:02 | 38.70733 | -4.82749 | 35122 ft | 440 kts | 203° |
| 2026-04-16 16:03 | 38.65005 | -4.85510 | 35126 ft | 440 kts | 203° |
| 2026-04-16 16:03 | 38.59275 | -4.88266 | 35117 ft | 440 kts | 203° |
| 2026-04-16 16:04 | 38.53549 | -4.91016 | 35112 ft | 439 kts | 203° |
| 2026-04-16 16:04 | 38.47828 | -4.93757 | 35117 ft | 439 kts | 203° |
| 2026-04-16 16:05 | 38.42109 | -4.96493 | 35123 ft | 438 kts | 202° |
| 2026-04-16 16:05 | 38.36397 | -4.99221 | 35123 ft | 438 kts | 202° |
| 2026-04-16 16:06 | 38.30732 | -5.01922 | 35122 ft | 438 kts | 202° |
| 2026-04-16 16:06 | 38.25034 | -5.04634 | 35118 ft | 437 kts | 202° |
| 2026-04-16 16:07 | 38.19343 | -5.07339 | 35118 ft | 436 kts | 202° |
| 2026-04-16 16:07 | 38.13655 | -5.10037 | 35120 ft | 436 kts | 202° |
| 2026-04-16 16:08 | 38.07972 | -5.12729 | 35119 ft | 436 kts | 202° |
| 2026-04-16 16:08 | 38.02292 | -5.15414 | 35123 ft | 435 kts | 202° |
| 2026-04-16 16:09 | 37.96618 | -5.18093 | 35110 ft | 435 kts | 202° |
| 2026-04-16 16:09 | 37.90945 | -5.20767 | 35107 ft | 435 kts | 202° |
| 2026-04-16 16:10 | 37.85269 | -5.23437 | 35113 ft | 435 kts | 202° |
| 2026-04-16 16:10 | 37.79602 | -5.26099 | 35119 ft | 434 kts | 202° |
| 2026-04-16 16:11 | 37.73932 | -5.28758 | 35113 ft | 434 kts | 202° |
| 2026-04-16 16:11 | 37.68263 | -5.31412 | 35108 ft | 435 kts | 202° |
| 2026-04-16 16:12 | 37.62590 | -5.34064 | 35110 ft | 435 kts | 202° |
| 2026-04-16 16:12 | 37.56944 | -5.36698 | 35083 ft | 424 kts | 201° |
| 2026-04-16 16:13 | 37.51534 | -5.39216 | 35085 ft | 406 kts | 201° |
| 2026-04-16 16:13 | 37.48921 | -5.40431 | 35084 ft | 395 kts | 201° |
| 2026-04-16 16:13 | 37.46373 | -5.41615 | 35089 ft | 389 kts | 201° |
| 2026-04-16 16:14 | 37.41295 | -5.43976 | 35114 ft | 390 kts | 201° |
| 2026-04-16 16:14 | 37.36247 | -5.46320 | 35043 ft | 388 kts | 201° |
| 2026-04-16 16:15 | 37.33724 | -5.47489 | 34470 ft | 387 kts | 201° |
| 2026-04-16 16:15 | 37.31211 | -5.48654 | 33540 ft | 395 kts | 201° |
| 2026-04-16 16:15 | 37.28607 | -5.49860 | 32655 ft | 401 kts | 201° |
| 2026-04-16 16:15 | 37.25987 | -5.51072 | 32028 ft | 400 kts | 201° |
| 2026-04-16 16:16 | 37.23387 | -5.52273 | 31554 ft | 396 kts | 201° |
| 2026-04-16 16:16 | 37.20818 | -5.53458 | 31078 ft | 392 kts | 201° |
| 2026-04-16 16:16 | 37.18269 | -5.54634 | 30573 ft | 389 kts | 201° |
| 2026-04-16 16:16 | 37.15732 | -5.55803 | 30014 ft | 387 kts | 201° |
| 2026-04-16 16:17 | 37.13215 | -5.56962 | 29458 ft | 384 kts | 201° |
| 2026-04-16 16:17 | 37.10716 | -5.58113 | 28909 ft | 380 kts | 201° |
| 2026-04-16 16:17 | 37.08240 | -5.59252 | 28404 ft | 379 kts | 201° |
| 2026-04-16 16:17 | 37.05773 | -5.60386 | 27997 ft | 377 kts | 201° |
| 2026-04-16 16:18 | 37.03321 | -5.61513 | 27619 ft | 374 kts | 201° |
| 2026-04-16 16:18 | 37.00885 | -5.62631 | 27268 ft | 371 kts | 201° |
| 2026-04-16 16:18 | 36.98478 | -5.63735 | 26908 ft | 369 kts | 201° |
| 2026-04-16 16:18 | 36.96068 | -5.64840 | 26541 ft | 367 kts | 201° |
| 2026-04-16 16:19 | 36.93676 | -5.65936 | 26177 ft | 365 kts | 201° |
| 2026-04-16 16:19 | 36.91294 | -5.67027 | 25816 ft | 364 kts | 201° |
| 2026-04-16 16:19 | 36.88926 | -5.68111 | 25466 ft | 362 kts | 201° |
| 2026-04-16 16:19 | 36.86570 | -5.69188 | 25121 ft | 360 kts | 201° |
| 2026-04-16 16:20 | 36.84224 | -5.70260 | 24769 ft | 358 kts | 201° |
| 2026-04-16 16:20 | 36.81885 | -5.71328 | 24404 ft | 357 kts | 200° |
| 2026-04-16 16:20 | 36.79554 | -5.72392 | 24063 ft | 356 kts | 200° |
| 2026-04-16 16:20 | 36.77230 | -5.73452 | 23698 ft | 355 kts | 200° |
| 2026-04-16 16:21 | 36.74910 | -5.74509 | 23292 ft | 354 kts | 200° |
| 2026-04-16 16:21 | 36.72601 | -5.75561 | 22920 ft | 352 kts | 200° |
| 2026-04-16 16:21 | 36.70311 | -5.76604 | 22560 ft | 350 kts | 200° |
| 2026-04-16 16:21 | 36.68033 | -5.77640 | 22218 ft | 347 kts | 200° |
| 2026-04-16 16:22 | 36.65772 | -5.78668 | 21859 ft | 345 kts | 200° |
| 2026-04-16 16:22 | 36.63527 | -5.79688 | 21534 ft | 342 kts | 200° |
| 2026-04-16 16:22 | 36.61295 | -5.80702 | 21199 ft | 340 kts | 200° |
| 2026-04-16 16:22 | 36.59080 | -5.81707 | 20867 ft | 338 kts | 200° |
| 2026-04-16 16:23 | 36.56876 | -5.82707 | 20534 ft | 336 kts | 200° |
| 2026-04-16 16:23 | 36.54686 | -5.83699 | 20214 ft | 334 kts | 200° |
| 2026-04-16 16:23 | 36.52506 | -5.84687 | 19881 ft | 333 kts | 200° |
| 2026-04-16 16:23 | 36.50337 | -5.85669 | 19563 ft | 331 kts | 200° |
| 2026-04-16 16:24 | 36.48209 | -5.86632 | 19242 ft | 329 kts | 200° |
| 2026-04-16 16:24 | 36.46060 | -5.87604 | 18916 ft | 328 kts | 200° |
| 2026-04-16 16:24 | 36.43920 | -5.88571 | 18593 ft | 327 kts | 200° |
| 2026-04-16 16:24 | 36.41788 | -5.89535 | 18255 ft | 326 kts | 200° |
| 2026-04-16 16:25 | 36.39662 | -5.90495 | 17892 ft | 324 kts | 200° |
| 2026-04-16 16:25 | 36.37547 | -5.91449 | 17547 ft | 323 kts | 200° |
| 2026-04-16 16:25 | 36.35442 | -5.92399 | 17224 ft | 321 kts | 200° |
| 2026-04-16 16:25 | 36.33351 | -5.93342 | 16890 ft | 319 kts | 200° |
| 2026-04-16 16:26 | 36.31267 | -5.94281 | 16558 ft | 317 kts | 200° |
| 2026-04-16 16:26 | 36.29199 | -5.95213 | 16242 ft | 316 kts | 200° |
| 2026-04-16 16:26 | 36.27142 | -5.96138 | 15924 ft | 314 kts | 200° |
| 2026-04-16 16:26 | 36.25093 | -5.97058 | 15605 ft | 313 kts | 200° |
| 2026-04-16 16:27 | 36.23016 | -5.97827 | 15278 ft | 312 kts | 190° |
| 2026-04-16 16:27 | 36.20867 | -5.98193 | 14951 ft | 311 kts | 186° |
| 2026-04-16 16:27 | 36.18713 | -5.98435 | 14633 ft | 310 kts | 185° |
| 2026-04-16 16:27 | 36.16564 | -5.98659 | 14324 ft | 309 kts | 185° |
| 2026-04-16 16:28 | 36.14422 | -5.98892 | 14013 ft | 309 kts | 185° |
| 2026-04-16 16:28 | 36.12279 | -5.99139 | 13680 ft | 308 kts | 185° |
| 2026-04-16 16:28 | 36.10170 | -5.99393 | 13338 ft | 307 kts | 185° |
| 2026-04-16 16:28 | 36.08048 | -5.99656 | 13002 ft | 306 kts | 186° |
| 2026-04-16 16:29 | 36.05939 | -5.99923 | 12687 ft | 304 kts | 186° |
| 2026-04-16 16:29 | 36.03838 | -6.00191 | 12376 ft | 303 kts | 186° |
| 2026-04-16 16:29 | 36.01745 | -6.00459 | 12074 ft | 301 kts | 186° |
| 2026-04-16 16:29 | 35.99666 | -6.00727 | 11772 ft | 300 kts | 186° |
| 2026-04-16 16:30 | 35.97593 | -6.00994 | 11458 ft | 299 kts | 186° |
| 2026-04-16 16:30 | 35.95532 | -6.01260 | 11174 ft | 298 kts | 186° |
| 2026-04-16 16:30 | 35.93472 | -6.01525 | 10872 ft | 297 kts | 186° |
| 2026-04-16 16:30 | 35.91420 | -6.01790 | 10577 ft | 296 kts | 186° |
| 2026-04-16 16:31 | 35.89375 | -6.02054 | 10269 ft | 295 kts | 186° |
| 2026-04-16 16:31 | 35.87358 | -6.02313 | 10125 ft | 288 kts | 186° |
| 2026-04-16 16:31 | 35.85362 | -6.02569 | 9816 ft | 288 kts | 186° |
| 2026-04-16 16:31 | 35.83374 | -6.02824 | 9522 ft | 287 kts | 186° |
| 2026-04-16 16:32 | 35.81399 | -6.03107 | 9230 ft | 285 kts | 186° |
| 2026-04-16 16:32 | 35.79434 | -6.03404 | 8943 ft | 284 kts | 186° |
| 2026-04-16 16:32 | 35.77481 | -6.03708 | 8660 ft | 282 kts | 187° |
| 2026-04-16 16:32 | 35.75540 | -6.04041 | 8370 ft | 281 kts | 187° |
| 2026-04-16 16:33 | 35.73609 | -6.04377 | 8088 ft | 280 kts | 187° |
| 2026-04-16 16:33 | 35.71685 | -6.04709 | 7804 ft | 278 kts | 187° |
| 2026-04-16 16:33 | 35.69777 | -6.05074 | 7513 ft | 278 kts | 193° |
| 2026-04-16 16:33 | 35.68095 | -6.06216 | 7214 ft | 280 kts | 225° |
| 2026-04-16 16:34 | 35.67059 | -6.08218 | 6962 ft | 280 kts | 248° |
| 2026-04-16 16:34 | 35.66493 | -6.10499 | 6689 ft | 279 kts | 253° |
| 2026-04-16 16:34 | 35.65979 | -6.12798 | 6382 ft | 279 kts | 253° |
| 2026-04-16 16:34 | 35.65481 | -6.15099 | 6074 ft | 278 kts | 259° |
| 2026-04-16 16:35 | 35.65658 | -6.17438 | 5760 ft | 279 kts | 295° |
| 2026-04-16 16:35 | 35.66871 | -6.19180 | 5515 ft | 273 kts | 331° |
| 2026-04-16 16:35 | 35.68630 | -6.19899 | 5294 ft | 266 kts | 356° |
| 2026-04-16 16:35 | 35.70457 | -6.19805 | 5042 ft | 262 kts | 16° |
| 2026-04-16 16:36 | 35.72087 | -6.18875 | 4809 ft | 256 kts | 39° |
| 2026-04-16 16:36 | 35.73130 | -6.17213 | 4748 ft | 240 kts | 69° |
| 2026-04-16 16:36 | 35.73494 | -6.15292 | 4674 ft | 223 kts | 85° |
| 2026-04-16 16:36 | 35.73586 | -6.13455 | 4562 ft | 208 kts | 88° |
| 2026-04-16 16:37 | 35.73652 | -6.11715 | 4309 ft | 199 kts | 88° |
| 2026-04-16 16:37 | 35.73720 | -6.10035 | 3997 ft | 196 kts | 88° |
| 2026-04-16 16:37 | 35.73782 | -6.08359 | 3622 ft | 195 kts | 90° |
| 2026-04-16 16:37 | 35.73755 | -6.06715 | 3274 ft | 188 kts | 93° |
| 2026-04-16 16:38 | 35.73716 | -6.05152 | 2918 ft | 179 kts | 94° |
| 2026-04-16 16:38 | 35.73681 | -6.03656 | 2542 ft | 171 kts | 94° |
| 2026-04-16 16:38 | 35.73649 | -6.02217 | 2193 ft | 163 kts | 94° |
| 2026-04-16 16:38 | 35.73621 | -6.00876 | 1821 ft | 152 kts | 92° |
| 2026-04-16 16:39 | 35.73595 | -5.99613 | 1431 ft | 143 kts | 92° |
| 2026-04-16 16:39 | 35.73570 | -5.98435 | 1100 ft | 132 kts | 90° |
| 2026-04-16 16:39 | 35.73564 | -5.97320 | 801 ft | 128 kts | 90° |
| 2026-04-16 16:39 | 35.73524 | -5.96199 | 524 ft | 139 kts | 91° |
| 2026-04-16 16:40 | 35.73428 | -5.94974 | 263 ft | 144 kts | 92° |
| 2026-04-16 16:40 | 35.73316 | -5.93776 | 40 ft | 138 kts | 92° |
| 2026-04-16 16:40 | 35.73221 | -5.92691 | 25 ft | 107 kts | 96° |
| 2026-04-16 16:40 | 35.73160 | -5.92053 | 34 ft | 44 kts | 96° |
| 2026-04-16 16:41 | 35.73143 | -5.91870 | 36 ft | 15 kts | 96° |
| 2026-04-16 16:41 | 35.73090 | -5.91768 | 38 ft | 14 kts | 142° |
| 2026-04-16 16:41 | 35.73000 | -5.91730 | 39 ft | 14 kts | 175° |
| 2026-04-16 16:41 | 35.72932 | -5.91724 | 39 ft | 7 kts | 175° |
| 2026-04-16 16:42 | 35.72884 | -5.91719 | 39 ft | 7 kts | 175° |
| 2026-04-16 16:42 | 35.72836 | -5.91715 | 39 ft | 7 kts | 176° |
| 2026-04-16 16:42 | 35.72789 | -5.91712 | 39 ft | 7 kts | 177° |
| 2026-04-16 16:42 | 35.72744 | -5.91705 | 39 ft | 7 kts | 171° |
| 2026-04-16 16:43 | 35.72698 | -5.91701 | 40 ft | 7 kts | 177° |
| 2026-04-16 16:43 | 35.72639 | -5.91697 | 40 ft | 10 kts | 176° |
| 2026-04-16 16:43 | 35.72563 | -5.91689 | 40 ft | 11 kts | 175° |
| 2026-04-16 16:43 | 35.72490 | -5.91672 | 40 ft | 11 kts | 154° |
| 2026-04-16 16:44 | 35.72440 | -5.91611 | 41 ft | 10 kts | 118° |
| 2026-04-16 16:44 | 35.72428 | -5.91527 | 42 ft | 10 kts | 84° |
| 2026-04-16 16:44 | 35.72431 | -5.91444 | 43 ft | 10 kts | 87° |
| 2026-04-16 16:44 | 35.72437 | -5.91362 | 44 ft | 9 kts | 84° |
| 2026-04-16 16:45 | 35.72443 | -5.91283 | 46 ft | 9 kts | 86° |
| 2026-04-16 16:45 | 35.72447 | -5.91205 | 47 ft | 9 kts | 83° |
| 2026-04-16 16:45 | 35.72451 | -5.91155 | 47 ft | 1 kts | 86° |
| 2026-04-16 16:45 | 35.72453 | -5.91143 | 47 ft | 2 kts | 75° |
| 2026-04-16 16:46 | 35.72475 | -5.91126 | 47 ft | 7 kts | 7° |
| 2026-04-16 16:46 | 35.72532 | -5.91128 | 47 ft | 4 kts | 355° |
| 2026-04-16 16:46 | 35.72545 | -5.91130 | 47 ft | 0 kts | 355° |